createdAt,value
2023-02-08T00:01:52.983Z,-0.50
2023-02-08T00:04:19.828Z,-0.30
2023-02-08T00:06:46.825Z,-0.20
2023-02-08T00:09:14.015Z,-0.20
2023-02-08T00:11:40.873Z,-0.20
2023-02-08T00:14:09.061Z,-0.40
2023-02-08T00:16:35.909Z,-0.40
2023-02-08T00:19:02.750Z,-0.50
2023-02-08T00:21:29.609Z,-0.40
2023-02-08T00:23:56.858Z,-0.60
2023-02-08T00:26:23.944Z,-0.50
2023-02-08T00:28:50.836Z,-0.80
2023-02-08T00:31:17.800Z,-0.50
2023-02-08T00:33:44.703Z,-0.70
2023-02-08T00:36:12.122Z,-0.60
2023-02-08T00:38:38.953Z,-0.60
2023-02-08T00:41:05.886Z,-0.60
2023-02-08T00:43:33.407Z,-0.70
2023-02-08T00:46:00.613Z,-0.80
2023-02-08T00:48:28.414Z,-0.70
2023-02-08T00:51:03.425Z,-0.60
2023-02-08T00:53:31.085Z,-0.70
2023-02-08T00:55:58.341Z,-0.70
2023-02-08T00:58:25.220Z,-0.70
2023-02-08T01:00:53.674Z,-0.70
2023-02-08T01:03:21.939Z,-0.70
2023-02-08T01:05:49.061Z,-0.80
2023-02-08T01:08:15.980Z,-0.70
2023-02-08T01:10:43.157Z,-0.50
2023-02-08T01:13:10.415Z,-0.50
2023-02-08T01:15:37.430Z,-0.40
2023-02-08T01:18:05.550Z,-0.50
2023-02-08T01:20:35.804Z,-0.60
2023-02-08T01:23:03.743Z,-0.50
2023-02-08T01:25:30.571Z,-0.50
2023-02-08T01:27:57.507Z,-0.40
2023-02-08T01:30:24.498Z,-0.70
2023-02-08T01:32:51.393Z,-0.70
2023-02-08T01:35:18.244Z,-0.70
2023-02-08T01:37:45.072Z,-0.80
2023-02-08T01:40:12.350Z,-0.60
2023-02-08T01:42:39.227Z,-0.60
2023-02-08T01:45:22.999Z,-0.60
2023-02-08T01:47:55.259Z,-0.70
2023-02-08T01:50:26.436Z,-0.60
2023-02-08T01:52:53.337Z,-0.50
2023-02-08T01:55:26.003Z,-0.50
2023-02-08T01:57:56.461Z,-0.40
2023-02-08T02:00:24.419Z,-0.40
2023-02-08T02:02:53.928Z,-0.60
2023-02-08T02:05:24.036Z,-0.70
2023-02-08T02:07:52.968Z,-0.70
2023-02-08T02:10:33.701Z,-0.70
2023-02-08T02:13:26.132Z,-0.70
2023-02-08T02:15:54.497Z,-0.70
2023-02-08T02:18:30.547Z,-0.70
2023-02-08T02:21:18.581Z,-0.90
2023-02-08T02:23:48.481Z,-0.80
2023-02-08T02:26:43.296Z,-0.90
2023-02-08T02:29:28.186Z,-0.90
2023-02-08T02:31:58.100Z,-0.90
2023-02-08T02:34:40.831Z,-0.80
2023-02-08T02:37:45.532Z,-0.70
2023-02-08T02:40:41.756Z,-0.80
2023-02-08T02:43:27.550Z,-0.90
2023-02-08T02:46:22.249Z,-0.70
2023-02-08T02:49:13.492Z,-0.60
2023-02-08T02:52:06.836Z,-0.50
2023-02-08T02:54:47.867Z,-0.60
2023-02-08T02:57:24.505Z,-0.80
2023-02-08T02:59:51.708Z,-0.80
2023-02-08T03:02:18.817Z,-0.70
2023-02-08T03:04:48.087Z,-0.80
2023-02-08T03:07:20.736Z,-0.80
2023-02-08T03:10:11.994Z,-0.80
2023-02-08T03:12:58.801Z,-0.90
2023-02-08T03:15:54.014Z,-1.00
2023-02-08T03:18:26.941Z,-0.80
2023-02-08T03:21:07.966Z,-0.80
2023-02-08T03:23:47.915Z,-0.70
2023-02-08T03:26:47.455Z,-0.70
2023-02-08T03:29:44.235Z,-0.60
2023-02-08T03:32:58.585Z,-0.60
2023-02-08T03:36:00.596Z,-0.60
2023-02-08T03:38:37.726Z,-0.80
2023-02-08T03:41:07.969Z,-0.80
2023-02-08T03:43:41.795Z,-0.80
2023-02-08T03:46:22.862Z,-0.90
2023-02-08T03:48:55.002Z,-0.80
2023-02-08T03:51:23.992Z,-0.60
2023-02-08T03:53:52.758Z,-0.60
2023-02-08T03:56:40.296Z,-0.50
2023-02-08T03:59:12.159Z,-0.50
2023-02-08T04:01:45.248Z,-0.40
2023-02-08T04:04:14.152Z,-0.60
2023-02-08T04:06:41.149Z,-0.60
2023-02-08T04:09:08.093Z,-0.60
2023-02-08T04:11:34.929Z,-0.60
2023-02-08T04:14:01.824Z,-0.50
2023-02-08T04:16:28.706Z,-0.50
2023-02-08T04:18:55.586Z,-0.50
2023-02-08T04:21:22.478Z,-0.50
2023-02-08T04:23:49.336Z,-0.50
2023-02-08T04:26:16.220Z,-0.50
2023-02-08T04:28:43.108Z,-0.50
2023-02-08T04:31:10.145Z,-0.40
2023-02-08T04:33:37.339Z,-0.50
2023-02-08T04:36:04.478Z,-0.40
2023-02-08T04:38:31.694Z,-0.50
2023-02-08T04:40:58.552Z,-0.40
2023-02-08T04:43:25.442Z,-0.50
2023-02-08T04:45:52.492Z,-0.50
2023-02-08T04:48:20.034Z,-0.60
2023-02-08T04:50:47.070Z,-0.40
2023-02-08T04:53:14.097Z,-0.40
2023-02-08T04:55:40.993Z,-0.40
2023-02-08T04:58:07.828Z,-0.30
2023-02-08T05:00:35.053Z,-0.50
2023-02-08T05:03:01.926Z,-0.50
2023-02-08T05:05:28.793Z,-0.50
2023-02-08T05:07:55.734Z,-0.50
2023-02-08T05:10:22.776Z,-0.60
2023-02-08T05:12:49.582Z,-0.70
2023-02-08T05:15:16.678Z,-0.70
2023-02-08T05:17:43.722Z,-0.60
2023-02-08T05:20:11.484Z,-0.70
2023-02-08T05:22:38.358Z,-0.50
2023-02-08T05:25:05.612Z,-0.50
2023-02-08T05:27:33.596Z,-0.60
2023-02-08T05:30:00.963Z,-0.30
2023-02-08T05:32:28.139Z,-0.50
2023-02-08T05:34:54.945Z,-0.60
2023-02-08T05:37:21.866Z,-0.60
2023-02-08T05:39:48.709Z,-0.40
2023-02-08T05:42:15.913Z,-0.50
2023-02-08T05:44:42.786Z,-0.60
2023-02-08T05:47:09.590Z,-0.50
2023-02-08T05:49:36.453Z,-0.60
2023-02-08T05:52:03.355Z,-0.50
2023-02-08T05:54:30.162Z,-0.60
2023-02-08T05:56:57.028Z,-0.70
2023-02-08T05:59:24.529Z,-0.70
2023-02-08T06:01:51.340Z,-0.80
2023-02-08T06:04:18.732Z,-0.80
2023-02-08T06:06:45.638Z,-0.80
2023-02-08T06:09:12.495Z,-0.70
2023-02-08T06:11:39.394Z,-0.80
2023-02-08T06:14:06.210Z,-1.00
2023-02-08T06:16:34.371Z,-0.80
2023-02-08T06:19:01.378Z,-1.00
2023-02-08T06:21:28.533Z,-1.10
2023-02-08T06:23:55.669Z,-1.20
2023-02-08T06:26:23.031Z,-1.10
2023-02-08T06:28:49.854Z,-1.30
2023-02-08T06:31:16.723Z,-1.30
2023-02-08T06:33:43.544Z,-1.10
2023-02-08T06:36:10.445Z,-1.20
2023-02-08T06:38:37.293Z,-1.30
2023-02-08T06:41:04.336Z,-1.20
2023-02-08T06:43:31.160Z,-1.20
2023-02-08T06:45:58.087Z,-1.00
2023-02-08T06:48:24.913Z,-1.10
2023-02-08T06:50:55.511Z,-0.90
2023-02-08T06:53:22.539Z,-0.30
2023-02-08T06:55:50.321Z,-0.20
2023-02-08T06:58:18.028Z,-0.30
2023-02-08T07:00:48.117Z,-0.10
2023-02-08T07:03:17.533Z,0.10
2023-02-08T07:05:58.618Z,0.60
2023-02-08T07:08:31.134Z,0.70
2023-02-08T07:10:57.996Z,1.00
2023-02-08T07:13:24.842Z,0.70
2023-02-08T07:15:51.897Z,1.00
2023-02-08T07:18:18.724Z,2.30
2023-02-08T07:20:45.541Z,2.50
2023-02-08T07:23:12.503Z,2.70
2023-02-08T07:25:39.354Z,3.10
2023-02-08T07:28:06.233Z,3.20
2023-02-08T07:30:33.241Z,3.30
2023-02-08T07:33:00.118Z,3.50
2023-02-08T07:35:26.995Z,4.10
2023-02-08T07:37:54.197Z,3.20
2023-02-08T07:40:21.019Z,4.10
2023-02-08T07:42:47.864Z,4.30
2023-02-08T07:45:14.750Z,4.70
2023-02-08T07:47:41.595Z,4.70
2023-02-08T07:50:08.709Z,5.50
2023-02-08T07:52:35.618Z,4.50
2023-02-08T07:55:02.441Z,4.10
2023-02-08T07:57:29.280Z,4.50
2023-02-08T07:59:56.154Z,4.00
2023-02-08T08:02:23.911Z,4.80
2023-02-08T08:04:50.721Z,4.60
2023-02-08T08:07:17.648Z,4.00
2023-02-08T08:09:44.456Z,4.30
2023-02-08T08:12:11.363Z,4.10
2023-02-08T08:14:38.298Z,4.20
2023-02-08T08:17:05.224Z,5.20
2023-02-08T08:19:32.029Z,6.30
2023-02-08T08:21:59.274Z,5.50
2023-02-08T08:24:26.189Z,5.40
2023-02-08T08:26:53.087Z,5.40
2023-02-08T08:29:19.965Z,4.20
2023-02-08T08:31:46.974Z,4.30
2023-02-08T08:34:13.795Z,4.80
2023-02-08T08:36:40.696Z,5.10
2023-02-08T08:39:07.649Z,4.90
2023-02-08T08:41:36.106Z,6.70
2023-02-08T08:44:04.067Z,6.80
2023-02-08T08:46:30.982Z,7.10
2023-02-08T08:48:58.462Z,7.10
2023-02-08T08:51:25.410Z,7.40
2023-02-08T08:53:52.454Z,7.40
2023-02-08T08:56:19.281Z,7.60
2023-02-08T08:58:46.162Z,6.50
2023-02-08T09:01:14.114Z,7.60
2023-02-08T09:03:41.164Z,8.50
2023-02-08T09:06:08.069Z,8.70
2023-02-08T09:08:35.000Z,7.50
2023-02-08T09:11:10.556Z,7.80
2023-02-08T09:13:37.699Z,8.50
2023-02-08T09:16:16.761Z,8.70
2023-02-08T09:18:44.852Z,9.70
2023-02-08T09:21:17.919Z,8.80
2023-02-08T09:23:45.377Z,8.70
2023-02-08T09:26:13.729Z,9.20
2023-02-08T09:28:41.277Z,10.70
2023-02-08T09:31:32.316Z,10.70
2023-02-08T09:34:01.329Z,9.30
2023-02-08T09:36:37.237Z,9.70
2023-02-08T09:39:24.818Z,10.40
2023-02-08T09:42:06.656Z,11.00
2023-02-08T09:44:55.306Z,11.40
2023-02-08T09:47:47.722Z,11.20
2023-02-08T09:50:32.589Z,11.00
2023-02-08T09:53:21.853Z,8.50
2023-02-08T09:56:01.744Z,9.30
2023-02-08T09:58:34.685Z,7.90
2023-02-08T10:01:05.070Z,8.10
2023-02-08T10:03:42.529Z,8.50
2023-02-08T10:06:13.028Z,8.20
2023-02-08T10:08:41.457Z,7.80
2023-02-08T10:11:36.169Z,9.50
2023-02-08T10:14:13.416Z,9.60
2023-02-08T10:17:11.108Z,9.90
2023-02-08T10:19:40.694Z,9.70
2023-02-08T10:22:43.044Z,8.90
2023-02-08T10:25:28.291Z,9.80
2023-02-08T10:28:15.488Z,9.80
2023-02-08T10:30:52.157Z,9.70
2023-02-08T10:33:28.987Z,9.10
2023-02-08T10:35:57.266Z,9.80
2023-02-08T10:38:44.167Z,9.80
2023-02-08T10:41:20.286Z,9.60
2023-02-08T10:44:12.572Z,9.60
2023-02-08T10:46:47.871Z,10.60
2023-02-08T10:49:35.391Z,10.10
2023-02-08T10:52:02.647Z,11.80
2023-02-08T10:54:29.563Z,11.50
2023-02-08T10:57:01.086Z,12.20
2023-02-08T10:59:36.934Z,10.20
2023-02-08T11:02:32.857Z,10.20
2023-02-08T11:05:03.744Z,11.60
2023-02-08T11:07:33.633Z,10.40
2023-02-08T11:10:20.766Z,11.40
2023-02-08T11:12:58.152Z,11.00
2023-02-08T11:15:45.458Z,11.40
2023-02-08T11:19:10.464Z,11.40
2023-02-08T11:21:40.109Z,11.90
2023-02-08T11:24:29.966Z,12.60
2023-02-08T11:26:56.944Z,12.40
2023-02-08T11:29:29.230Z,13.10
2023-02-08T11:31:59.446Z,12.00
2023-02-08T11:34:32.841Z,12.90
2023-02-08T11:37:23.341Z,11.90
2023-02-08T11:39:55.577Z,13.50
2023-02-08T11:42:26.498Z,12.80
2023-02-08T11:44:54.824Z,12.10
2023-02-08T11:47:30.641Z,11.60
2023-02-08T11:50:03.726Z,12.00
2023-02-08T11:52:32.701Z,13.00
2023-02-08T11:55:17.145Z,13.20
2023-02-08T11:57:57.361Z,12.70
2023-02-08T12:00:29.644Z,12.80
2023-02-08T12:03:20.787Z,12.20
2023-02-08T12:06:05.732Z,12.40
2023-02-08T12:09:03.896Z,12.10
2023-02-08T12:11:52.332Z,11.30
2023-02-08T12:14:19.139Z,12.40
2023-02-08T12:17:04.671Z,12.00
2023-02-08T12:19:59.622Z,12.30
2023-02-08T12:22:28.971Z,12.40
2023-02-08T12:25:14.391Z,12.00
2023-02-08T12:28:00.100Z,11.80
2023-02-08T12:30:34.704Z,11.20
2023-02-08T12:33:17.190Z,10.90
2023-02-08T12:36:04.948Z,10.30
2023-02-08T12:39:25.361Z,9.80
2023-02-08T12:42:20.336Z,9.20
2023-02-08T12:45:09.842Z,8.20
2023-02-08T12:48:03.699Z,8.70
2023-02-08T12:50:49.623Z,8.00
2023-02-08T12:53:33.562Z,8.80
2023-02-08T12:56:05.535Z,8.60
2023-02-08T12:58:39.757Z,9.40
2023-02-08T13:01:31.737Z,9.20
2023-02-08T13:04:13.667Z,9.10
2023-02-08T13:06:44.846Z,8.80
2023-02-08T13:09:14.927Z,9.00
2023-02-08T13:11:56.121Z,8.30
2023-02-08T13:14:33.644Z,8.10
2023-02-08T13:17:12.868Z,7.90
2023-02-08T13:19:59.660Z,7.60
2023-02-08T13:22:30.418Z,7.50
2023-02-08T13:25:06.944Z,6.90
2023-02-08T13:27:34.469Z,6.50
2023-02-08T13:30:02.057Z,5.60
2023-02-08T13:32:35.384Z,6.10
2023-02-08T13:35:14.532Z,6.60
2023-02-08T13:37:41.994Z,6.60
2023-02-08T13:40:28.522Z,5.70
2023-02-08T13:43:00.359Z,5.20
2023-02-08T13:45:34.597Z,5.20
2023-02-08T13:48:04.957Z,5.60
2023-02-08T13:50:45.276Z,5.70
2023-02-08T13:53:15.031Z,5.20
2023-02-08T13:55:55.867Z,4.40
2023-02-08T13:58:58.510Z,4.20
2023-02-08T14:01:36.462Z,4.90
2023-02-08T14:04:09.965Z,4.70
2023-02-08T14:06:44.306Z,4.80
2023-02-08T14:09:22.077Z,4.60
2023-02-08T14:12:01.926Z,4.40
2023-02-08T14:14:28.728Z,4.50
2023-02-08T14:17:28.412Z,4.70
2023-02-08T14:20:02.299Z,4.90
2023-02-08T14:22:49.393Z,5.30
2023-02-08T14:25:26.201Z,5.30
2023-02-08T14:27:59.961Z,4.40
2023-02-08T14:30:26.895Z,4.30
2023-02-08T14:33:12.692Z,4.50
2023-02-08T14:35:52.042Z,4.30
2023-02-08T14:38:18.840Z,4.60
2023-02-08T14:40:59.690Z,4.40
2023-02-08T14:43:42.935Z,4.10
2023-02-08T14:46:37.920Z,4.60
2023-02-08T14:49:18.654Z,4.70
2023-02-08T14:52:02.868Z,4.40
2023-02-08T14:54:54.095Z,4.10
2023-02-08T14:57:25.730Z,4.00
2023-02-08T14:59:54.164Z,3.80
2023-02-08T15:02:26.248Z,3.20
2023-02-08T15:04:53.166Z,3.00
2023-02-08T15:07:33.665Z,2.80
2023-02-08T15:10:04.654Z,2.80
2023-02-08T15:12:44.018Z,2.60
2023-02-08T15:15:43.309Z,2.30
2023-02-08T15:18:20.611Z,1.60
2023-02-08T15:21:00.256Z,1.50
2023-02-08T15:23:27.324Z,1.50
2023-02-08T15:25:57.015Z,1.30
2023-02-08T15:28:27.256Z,1.20
2023-02-08T15:31:14.687Z,0.90
2023-02-08T15:33:45.520Z,0.70
2023-02-08T15:36:17.545Z,0.50
2023-02-08T15:38:45.149Z,0.70
2023-02-08T15:41:24.114Z,0.60
2023-02-08T15:43:51.076Z,0.30
2023-02-08T15:46:26.826Z,0.50
2023-02-08T15:48:54.764Z,0.40
2023-02-08T15:51:24.379Z,0.50
2023-02-08T15:53:54.523Z,0.40
2023-02-08T15:56:37.113Z,0.10
2023-02-08T15:59:08.138Z,0.10
2023-02-08T16:01:35.173Z,0.00
2023-02-08T16:04:12.561Z,-0.30
2023-02-08T16:06:45.452Z,-0.30
2023-02-08T16:09:22.567Z,-0.30
2023-02-08T16:11:51.647Z,-0.30
2023-02-08T16:14:24.790Z,-0.60
2023-02-08T16:16:57.984Z,-0.70
2023-02-08T16:19:30.618Z,-0.40
2023-02-08T16:22:23.047Z,-0.40
2023-02-08T16:24:51.070Z,-0.60
2023-02-08T16:27:27.434Z,-0.70
2023-02-08T16:29:54.984Z,-0.80
2023-02-08T16:32:37.036Z,-0.60
2023-02-08T16:35:29.599Z,-0.50
2023-02-08T16:38:00.592Z,-0.40
2023-02-08T16:40:49.869Z,-0.60
2023-02-08T16:43:35.248Z,-0.80
2023-02-08T16:46:10.967Z,-1.00
2023-02-08T16:48:40.652Z,-1.00
2023-02-08T16:51:23.721Z,-0.80
2023-02-08T16:53:54.668Z,-1.10
2023-02-08T16:56:22.308Z,-1.10
2023-02-08T16:58:49.224Z,-1.00
2023-02-08T17:01:16.628Z,-0.90
2023-02-08T17:03:43.591Z,-1.00
2023-02-08T17:06:25.816Z,-1.00
2023-02-08T17:08:52.636Z,-1.20
2023-02-08T17:11:19.450Z,-1.40
2023-02-08T17:13:46.680Z,-1.40
2023-02-08T17:16:19.480Z,-1.20
2023-02-08T17:18:47.553Z,-1.30
2023-02-08T17:21:15.150Z,-1.50
2023-02-08T17:23:42.981Z,-1.50
2023-02-08T17:26:23.126Z,-1.60
2023-02-08T17:28:50.639Z,-1.60
2023-02-08T17:31:17.870Z,-1.80
2023-02-08T17:33:45.196Z,-1.80
2023-02-08T17:36:14.518Z,-2.00
2023-02-08T17:38:43.395Z,-2.00
2023-02-08T17:41:14.013Z,-2.10
2023-02-08T17:43:40.986Z,-2.10
2023-02-08T17:46:13.025Z,-2.30
2023-02-08T17:48:40.014Z,-2.30
2023-02-08T17:51:13.598Z,-2.00
2023-02-08T17:53:43.789Z,-2.00
2023-02-08T17:56:16.223Z,-1.90
2023-02-08T17:58:43.876Z,-2.00
2023-02-08T18:01:17.493Z,-2.00
2023-02-08T18:03:46.200Z,-1.90
2023-02-08T18:06:13.790Z,-1.80
2023-02-08T18:08:41.698Z,-1.90
2023-02-08T18:11:21.162Z,-2.10
2023-02-08T18:13:49.755Z,-2.50
2023-02-08T18:16:27.845Z,-2.30
2023-02-08T18:18:57.005Z,-2.20
2023-02-08T18:21:27.627Z,-2.20
2023-02-08T18:23:55.501Z,-2.20
2023-02-08T18:26:24.536Z,-2.30
2023-02-08T18:28:52.201Z,-2.40
2023-02-08T18:31:20.834Z,-2.60
2023-02-08T18:33:48.820Z,-2.60
2023-02-08T18:36:16.491Z,-2.50
2023-02-08T18:38:45.746Z,-2.60
2023-02-08T18:41:18.901Z,-2.80
2023-02-08T18:43:46.340Z,-3.00
2023-02-08T18:46:16.215Z,-3.00
2023-02-08T18:48:44.753Z,-3.00
2023-02-08T18:51:14.599Z,-3.40
2023-02-08T18:53:42.448Z,-3.10
2023-02-08T18:56:11.643Z,-3.10
2023-02-08T18:58:38.543Z,-3.30
2023-02-08T19:01:18.118Z,-3.30
2023-02-08T19:03:45.447Z,-3.40
2023-02-08T19:06:16.359Z,-3.50
2023-02-08T19:08:45.544Z,-3.30
2023-02-08T19:11:24.838Z,-3.30
2023-02-08T19:13:52.816Z,-3.60
2023-02-08T19:16:22.120Z,-3.50
2023-02-08T19:18:49.511Z,-3.40
2023-02-08T19:21:17.850Z,-3.30
2023-02-08T19:23:49.401Z,-3.40
2023-02-08T19:26:27.855Z,-3.50
2023-02-08T19:28:58.967Z,-3.40
2023-02-08T19:31:28.564Z,-3.40
2023-02-08T19:33:58.759Z,-3.40
2023-02-08T19:36:34.766Z,-3.50
2023-02-08T19:39:02.157Z,-3.60
2023-02-08T19:41:34.673Z,-3.70
2023-02-08T19:44:04.809Z,-3.60
2023-02-08T19:46:34.580Z,-3.60
2023-02-08T19:49:02.072Z,-3.70
2023-02-08T19:51:32.071Z,-3.70
2023-02-08T19:54:01.119Z,-3.80
2023-02-08T19:56:33.942Z,-3.70
2023-02-08T19:59:04.147Z,-3.60
2023-02-08T20:01:33.435Z,-3.80
2023-02-08T20:04:00.571Z,-3.80
2023-02-08T20:06:29.997Z,-4.00
2023-02-08T20:08:57.109Z,-3.90
2023-02-08T20:11:30.723Z,-3.90
2023-02-08T20:13:59.543Z,-3.80
2023-02-08T20:16:31.223Z,-3.90
2023-02-08T20:18:58.908Z,-3.90
2023-02-08T20:21:25.776Z,-4.00
2023-02-08T20:23:52.707Z,-4.00
2023-02-08T20:26:22.401Z,-4.30
2023-02-08T20:28:52.005Z,-4.00
2023-02-08T20:31:29.419Z,-4.00
2023-02-08T20:34:03.329Z,-3.90
2023-02-08T20:36:33.428Z,-3.90
2023-02-08T20:39:00.611Z,-4.00
2023-02-08T20:41:30.436Z,-4.00
2023-02-08T20:43:57.452Z,-4.00
2023-02-08T20:46:34.360Z,-4.00
2023-02-08T20:49:03.514Z,-4.00
2023-02-08T20:51:30.899Z,-4.40
2023-02-08T20:53:59.496Z,-4.40
2023-02-08T20:56:29.843Z,-4.30
2023-02-08T20:58:56.854Z,-4.40
2023-02-08T21:01:25.919Z,-4.30
2023-02-08T21:03:54.676Z,-4.30
2023-02-08T21:06:26.494Z,-4.30
2023-02-08T21:08:55.426Z,-4.40
2023-02-08T21:11:25.078Z,-4.30
2023-02-08T21:13:52.398Z,-4.20
2023-02-08T21:16:19.529Z,-4.30
2023-02-08T21:18:47.109Z,-4.50
2023-02-08T21:21:15.391Z,-4.50
2023-02-08T21:23:43.334Z,-4.40
2023-02-08T21:26:16.289Z,-4.20
2023-02-08T21:28:43.922Z,-4.30
2023-02-08T21:31:14.832Z,-4.30
2023-02-08T21:33:42.888Z,-4.30
2023-02-08T21:36:14.342Z,-4.30
2023-02-08T21:38:41.856Z,-4.20
2023-02-08T21:41:12.976Z,-4.20
2023-02-08T21:43:40.657Z,-4.50
2023-02-08T21:46:08.649Z,-4.50
2023-02-08T21:48:55.899Z,-4.30
2023-02-08T21:51:43.287Z,-4.20
2023-02-08T21:54:37.524Z,-4.20
2023-02-08T21:57:06.930Z,-4.30
2023-02-08T21:59:37.732Z,-4.10
2023-02-08T22:02:10.730Z,-4.20
2023-02-08T22:04:56.277Z,-4.30
2023-02-08T22:07:24.423Z,-4.20
2023-02-08T22:09:51.581Z,-4.20
2023-02-08T22:12:20.955Z,-4.30
2023-02-08T22:14:48.999Z,-4.40
2023-02-08T22:17:16.060Z,-4.50
2023-02-08T22:19:43.460Z,-4.50
2023-02-08T22:22:11.593Z,-4.50
2023-02-08T22:24:38.732Z,-4.60
2023-02-08T22:27:05.910Z,-4.60
2023-02-08T22:29:32.814Z,-4.70
2023-02-08T22:31:59.878Z,-4.80
2023-02-08T22:34:27.628Z,-4.10
2023-02-08T22:36:54.572Z,-4.70
2023-02-08T22:39:21.777Z,-4.60
2023-02-08T22:41:48.885Z,-4.60
2023-02-08T22:44:15.824Z,-4.60
2023-02-08T22:46:42.734Z,-4.50
2023-02-08T22:49:09.639Z,-4.60
2023-02-08T22:51:36.496Z,-4.80
2023-02-08T22:54:03.465Z,-5.00
2023-02-08T22:56:30.845Z,-4.90
2023-02-08T22:59:00.250Z,-4.70
2023-02-08T23:01:27.390Z,-4.70
2023-02-08T23:03:54.500Z,-4.70
2023-02-08T23:06:21.353Z,-4.60
2023-02-08T23:08:48.283Z,-4.50
2023-02-08T23:11:15.634Z,-4.40
2023-02-08T23:13:42.500Z,-4.30
2023-02-08T23:16:16.214Z,-4.30
2023-02-08T23:18:43.849Z,-4.40
2023-02-08T23:21:14.291Z,-4.40
2023-02-08T23:23:41.639Z,-4.50
2023-02-08T23:26:11.862Z,-4.30
2023-02-08T23:28:38.730Z,-4.20
2023-02-08T23:31:07.621Z,-4.20
2023-02-08T23:33:35.570Z,-4.30
2023-02-08T23:36:10.476Z,-4.40
2023-02-08T23:38:37.836Z,-4.50
2023-02-08T23:41:06.955Z,-4.40
2023-02-08T23:43:34.340Z,-4.50
2023-02-08T23:46:07.263Z,-4.70
2023-02-08T23:48:34.241Z,-4.60
2023-02-08T23:51:02.771Z,-4.70
2023-02-08T23:53:32.296Z,-4.60
2023-02-08T23:56:22.278Z,-4.70
2023-02-08T23:58:51.686Z,-4.70
